Time;durP1;ratioP1;P1;durP2;ratioP2;P2;SDS_P1;SDS_P2;PMS_P1;PMS_P2;Temp;Humidity;BMP_temperature;BMP_pressure;BME280_temperature;BME280_humidity;BME280_pressure;Samples;Min_cycle;Max_cycle;Signal;HPM_P1;HPM_P2
2023/07/18 00:00:40;;;;;;;3.93;2.50;;;16.70;1.00;;;;;;8289777;28;20196;-66
2023/07/18 00:04:41;;;;;;;3.30;2.40;;;16.50;1.00;;;;;;8289055;28;20222;-65
2023/07/18 00:08:42;;;;;;;4.97;2.73;;;16.30;1.00;;;;;;8283863;28;20182;-63
2023/07/18 00:12:43;;;;;;;3.90;2.40;;;16.10;1.00;;;;;;8296514;28;20194;-64
2023/07/18 00:16:46;;;;;;;5.00;2.57;;;16.10;1.00;;;;;;8289248;28;20218;-64
2023/07/18 00:20:47;;;;;;;3.43;2.47;;;16.10;1.00;;;;;;8288745;28;20187;-64
2023/07/18 00:24:48;;;;;;;7.00;2.63;;;16.10;1.00;;;;;;8286894;28;20241;-63
2023/07/18 00:28:53;;;;;;;4.90;2.40;;;16.20;1.00;;;;;;8292995;28;20191;-64
2023/07/18 00:32:54;;;;;;;3.97;2.23;;;16.20;1.00;;;;;;8295347;28;20182;-63
2023/07/18 00:36:55;;;;;;;5.60;2.40;;;16.00;1.00;;;;;;8291144;28;20216;-66
2023/07/18 00:40:56;;;;;;;4.83;2.27;;;15.80;1.00;;;;;;8294134;28;20301;-64
2023/07/18 00:44:57;;;;;;;5.77;2.20;;;15.70;1.00;;;;;;8292833;28;20204;-64
2023/07/18 00:48:58;;;;;;;4.97;2.60;;;15.50;1.00;;;;;;8287249;28;20191;-63
2023/07/18 00:53:00;;;;;;;5.40;2.50;;;15.40;1.00;;;;;;8281472;28;20187;-64
2023/07/18 00:57:01;;;;;;;3.20;2.20;;;15.20;1.00;;;;;;8305031;28;20282;-65
2023/07/18 01:01:05;;;;;;;3.40;2.40;;;15.10;1.00;;;;;;8293161;28;20245;-63
2023/07/18 01:05:17;;;;;;;6.33;2.47;;;15.00;5.70;;;;;;8272578;28;20224;-67
2023/07/18 01:09:18;;;;;;;3.63;2.50;;;14.90;36.10;;;;;;8288140;28;20187;-63
2023/07/18 01:13:18;;;;;;;4.23;2.70;;;14.80;40.50;;;;;;8285470;28;20245;-64
2023/07/18 01:17:20;;;;;;;3.60;2.60;;;14.70;63.10;;;;;;8290825;28;20309;-64
2023/07/18 01:21:22;;;;;;;4.93;2.73;;;14.80;96.20;;;;;;8289914;28;20250;-64
2023/07/18 01:25:23;;;;;;;5.67;2.80;;;14.80;66.10;;;;;;8290679;28;20191;-63
2023/07/18 01:29:24;;;;;;;3.13;2.60;;;14.80;64.60;;;;;;8296826;28;20202;-66
2023/07/18 01:33:27;;;;;;;4.37;2.83;;;14.70;65.60;;;;;;8295831;28;20209;-64
2023/07/18 01:37:27;;;;;;;6.23;2.73;;;14.60;84.00;;;;;;8294917;28;20280;-63
2023/07/18 01:41:29;;;;;;;2.73;1.93;;;14.60;99.90;;;;;;8296009;28;20182;-64
2023/07/18 01:45:30;;;;;;;3.40;2.57;;;14.30;99.90;;;;;;8301181;28;20240;-63
2023/07/18 01:49:32;;;;;;;3.07;2.43;;;14.10;99.90;;;;;;8297406;28;20292;-63
2023/07/18 01:53:33;;;;;;;4.67;2.87;;;14.00;99.90;;;;;;8294767;28;20297;-63
2023/07/18 01:57:39;;;;;;;3.40;2.53;;;13.90;99.90;;;;;;8298025;28;20221;-63
2023/07/18 02:01:40;;;;;;;6.90;2.90;;;13.90;99.90;;;;;;8296103;28;20197;-64
2023/07/18 02:05:41;;;;;;;4.77;2.50;;;13.90;99.90;;;;;;8295118;28;20241;-64
2023/07/18 02:09:42;;;;;;;3.57;2.73;;;14.00;99.90;;;;;;8290307;28;20186;-64
2023/07/18 02:13:45;;;;;;;5.40;2.63;;;14.10;99.90;;;;;;8288174;28;20190;-63
2023/07/18 02:17:47;;;;;;;5.50;3.33;;;14.10;99.90;;;;;;8296942;28;20217;-63
2023/07/18 02:21:48;;;;;;;5.47;2.83;;;14.00;99.90;;;;;;8293901;28;20244;-66
2023/07/18 02:25:49;;;;;;;5.10;2.90;;;13.90;99.90;;;;;;8300634;28;20216;-63
2023/07/18 02:29:50;;;;;;;4.50;2.60;;;14.00;99.90;;;;;;8300122;28;20186;-65
2023/07/18 02:33:51;;;;;;;7.47;2.67;;;13.90;99.90;;;;;;8293802;28;20232;-63
2023/07/18 02:37:52;;;;;;;4.73;2.53;;;13.90;99.90;;;;;;8287791;28;20217;-64
2023/07/18 02:41:53;;;;;;;3.80;2.90;;;14.00;99.90;;;;;;8296797;28;20250;-64
2023/07/18 02:45:53;;;;;;;4.60;2.93;;;14.00;99.90;;;;;;8297558;28;20186;-64
2023/07/18 02:49:54;;;;;;;4.17;2.40;;;14.00;99.90;;;;;;8296080;28;20184;-64
2023/07/18 02:53:55;;;;;;;3.83;2.77;;;13.80;99.90;;;;;;8294090;28;20186;-64
2023/07/18 02:57:57;;;;;;;3.83;2.53;;;13.90;99.90;;;;;;8293746;28;20213;-64
2023/07/18 03:01:57;;;;;;;4.90;2.97;;;14.10;99.90;;;;;;8291999;28;20187;-63
2023/07/18 03:05:58;;;;;;;4.40;2.27;;;14.40;99.90;;;;;;8280676;28;20225;-63
2023/07/18 03:09:59;;;;;;;6.57;2.97;;;14.60;52.60;;;;;;8293745;28;20190;-64
2023/07/18 03:14:00;;;;;;;4.13;2.83;;;14.60;26.10;;;;;;8287043;28;20195;-64
2023/07/18 03:18:01;;;;;;;3.50;2.57;;;14.70;10.90;;;;;;8299509;28;20216;-64
2023/07/18 03:22:02;;;;;;;6.10;2.90;;;14.90;1.00;;;;;;8295435;28;20187;-64
2023/07/18 03:26:03;;;;;;;3.80;2.50;;;14.90;1.00;;;;;;8296166;28;20214;-63
2023/07/18 03:30:10;;;;;;;2.87;2.20;;;15.20;1.00;;;;;;8295795;28;20190;-63
2023/07/18 03:34:11;;;;;;;4.90;2.23;;;15.90;1.00;;;;;;8297034;28;20305;-64
2023/07/18 03:38:13;;;;;;;4.67;2.13;;;16.70;1.00;;;;;;8294496;28;20256;-63
2023/07/18 03:42:15;;;;;;;3.67;2.20;;;17.50;1.00;;;;;;8298221;28;20190;-63
2023/07/18 03:46:16;;;;;;;3.27;2.30;;;18.10;1.00;;;;;;8296181;28;20244;-63
2023/07/18 03:50:17;;;;;;;2.97;2.00;;;18.10;1.00;;;;;;8300891;28;20186;-63
2023/07/18 03:54:18;;;;;;;3.47;2.10;;;18.40;1.00;;;;;;8288368;28;20182;-63
2023/07/18 03:58:20;;;;;;;6.10;2.40;;;18.90;1.00;;;;;;8297781;28;20305;-63
2023/07/18 04:02:21;;;;;;;6.17;2.60;;;19.20;1.00;;;;;;8296401;28;20202;-64
2023/07/18 04:06:22;;;;;;;4.33;2.07;;;19.30;1.00;;;;;;8301074;28;20218;-70
2023/07/18 04:10:23;;;;;;;4.00;2.10;;;20.00;1.00;;;;;;8295768;28;20191;-69
2023/07/18 04:14:24;;;;;;;3.40;2.20;;;20.40;1.00;;;;;;8303170;28;20222;-67
2023/07/18 04:18:24;;;;;;;6.17;2.23;;;20.60;99.90;;;;;;8294703;28;20317;-69
2023/07/18 04:22:26;;;;;;;3.30;2.07;;;20.90;99.90;;;;;;8300887;28;20185;-69
2023/07/18 04:26:27;;;;;;;4.47;2.37;;;21.40;99.90;;;;;;8299089;28;20187;-71
2023/07/18 04:30:28;;;;;;;5.10;2.20;;;21.70;99.90;;;;;;8294216;28;20222;-67
2023/07/18 04:34:29;;;;;;;3.10;1.83;;;21.80;99.90;;;;;;8299207;28;20205;-69
2023/07/18 04:38:30;;;;;;;4.67;1.93;;;21.70;99.90;;;;;;8296544;28;20218;-68
2023/07/18 04:42:33;;;;;;;2.63;2.07;;;21.50;99.90;;;;;;8287149;28;20200;-67
2023/07/18 04:46:36;;;;;;;3.07;2.03;;;21.30;99.90;;;;;;8299991;28;20194;-70
2023/07/18 04:50:37;;;;;;;3.60;1.70;;;21.10;99.90;;;;;;8287308;28;20225;-68
2023/07/18 04:54:38;;;;;;;4.27;1.90;;;21.00;99.90;;;;;;8294458;28;20198;-68
2023/07/18 04:58:39;;;;;;;3.93;1.70;;;20.90;99.90;;;;;;8304779;28;20276;-70
2023/07/18 05:02:40;;;;;;;1.83;1.50;;;20.80;99.90;;;;;;8296726;28;20190;-69
2023/07/18 05:06:41;;;;;;;3.37;2.03;;;20.20;99.90;;;;;;8308930;28;20210;-70
2023/07/18 05:10:42;;;;;;;3.00;1.93;;;19.90;99.90;;;;;;8300323;28;20236;-69
2023/07/18 05:14:46;;;;;;;3.53;1.70;;;19.20;99.90;;;;;;8302430;28;20208;-69
2023/07/18 05:18:47;;;;;;;3.83;1.80;;;18.30;1.00;;;;;;8299069;28;20233;-68
2023/07/18 05:22:48;;;;;;;3.23;2.10;;;18.00;1.00;;;;;;8301301;28;20186;-69
2023/07/18 05:26:49;;;;;;;3.10;1.57;;;18.00;1.00;;;;;;8296572;28;20190;-70
2023/07/18 05:30:50;;;;;;;2.63;1.90;;;17.90;1.00;;;;;;8304011;28;20191;-71
2023/07/18 05:34:51;;;;;;;3.27;1.90;;;17.90;1.00;;;;;;8302941;28;20205;-68
2023/07/18 05:38:51;;;;;;;4.63;1.67;;;17.80;1.00;;;;;;8308010;28;20210;-69
2023/07/18 05:42:52;;;;;;;2.50;1.60;;;17.60;1.00;;;;;;8297134;28;20192;-69
2023/07/18 05:46:53;;;;;;;3.20;1.87;;;17.50;1.00;;;;;;8300968;28;20236;-68
2023/07/18 05:50:55;;;;;;;3.27;1.60;;;17.40;1.00;;;;;;8302123;28;20201;-70
2023/07/18 05:54:56;;;;;;;3.93;1.73;;;17.30;1.00;;;;;;8301266;28;20190;-68
2023/07/18 05:58:57;;;;;;;3.87;1.80;;;17.50;1.00;;;;;;8307111;28;20198;-71
2023/07/18 06:03:04;;;;;;;2.97;1.87;;;17.40;1.00;;;;;;8296498;28;20217;-68
2023/07/18 06:07:08;;;;;;;8.57;2.07;;;17.40;1.00;;;;;;8307880;28;20221;-68
2023/07/18 06:11:12;;;;;;;5.27;1.73;;;17.30;1.00;;;;;;8320352;28;20217;-67
2023/07/18 06:15:12;;;;;;;3.30;1.67;;;17.30;1.00;;;;;;8299520;28;20213;-70
2023/07/18 06:19:14;;;;;;;2.37;1.60;;;17.40;1.00;;;;;;8302464;28;20186;-62
2023/07/18 06:23:16;;;;;;;3.43;1.73;;;17.40;1.00;;;;;;8304397;28;20245;-63
2023/07/18 06:27:16;;;;;;;3.50;2.00;;;17.40;1.00;;;;;;8301472;28;20202;-63
2023/07/18 06:31:18;;;;;;;2.47;1.60;;;17.60;1.00;;;;;;8299596;28;20186;-65
2023/07/18 06:35:19;;;;;;;3.80;1.50;;;17.90;1.00;;;;;;8294301;28;20210;-63
2023/07/18 06:39:23;;;;;;;1.93;1.57;;;18.00;1.00;;;;;;8303996;28;20187;-62
2023/07/18 06:43:27;;;;;;;4.00;1.70;;;18.10;1.00;;;;;;8296273;28;20187;-64
2023/07/18 06:47:28;;;;;;;3.73;1.73;;;18.30;1.00;;;;;;8295685;28;20252;-62
2023/07/18 06:51:29;;;;;;;2.53;1.23;;;18.40;1.00;;;;;;8299703;28;20214;-63
2023/07/18 06:55:30;;;;;;;1.97;1.27;;;18.60;1.00;;;;;;8296761;28;20214;-62
2023/07/18 06:59:31;;;;;;;3.30;1.63;;;18.90;99.90;;;;;;8289591;28;20281;-63
2023/07/18 07:03:32;;;;;;;1.97;1.43;;;19.10;99.90;;;;;;8296540;28;20329;-62
2023/07/18 07:07:33;;;;;;;3.33;1.63;;;19.10;99.90;;;;;;8295786;28;20207;-62
2023/07/18 07:11:36;;;;;;;1.93;1.40;;;19.40;99.90;;;;;;8298678;28;20194;-62
2023/07/18 07:15:40;;;;;;;2.37;1.47;;;19.50;99.90;;;;;;8303279;28;20260;-63
2023/07/18 07:19:41;;;;;;;2.60;1.20;;;19.50;99.90;;;;;;8301106;28;20198;-64
2023/07/18 07:23:41;;;;;;;4.83;1.77;;;19.60;99.90;;;;;;8299265;28;20201;-64
2023/07/18 07:27:43;;;;;;;3.33;1.40;;;19.60;99.90;;;;;;8303931;28;20264;-63
2023/07/18 07:31:44;;;;;;;2.03;1.37;;;19.70;99.90;;;;;;8297911;28;20203;-65
2023/07/18 07:35:46;;;;;;;4.00;1.87;;;20.00;99.90;;;;;;8304834;28;20210;-63
2023/07/18 07:39:47;;;;;;;2.53;1.63;;;19.80;99.90;;;;;;8303910;28;20257;-62
2023/07/18 07:43:47;;;;;;;3.30;1.50;;;19.80;99.90;;;;;;8302809;28;20186;-62
2023/07/18 07:47:51;;;;;;;2.47;1.37;;;20.00;99.90;;;;;;8297195;28;20273;-63
2023/07/18 07:51:52;;;;;;;2.50;1.33;;;20.30;99.90;;;;;;8308166;28;20266;-64
2023/07/18 07:55:53;;;;;;;4.37;1.40;;;20.30;99.90;;;;;;8297904;28;20221;-64
2023/07/18 07:59:54;;;;;;;4.50;1.63;;;20.30;99.90;;;;;;8305724;28;20186;-64
2023/07/18 08:03:55;;;;;;;2.60;1.20;;;20.30;99.90;;;;;;8298863;28;20218;-62
2023/07/18 08:07:56;;;;;;;2.30;1.33;;;20.30;99.90;;;;;;8304508;28;20253;-66
2023/07/18 08:11:57;;;;;;;1.80;1.17;;;20.40;99.90;;;;;;8302884;28;20191;-64
2023/07/18 08:15:58;;;;;;;2.53;1.30;;;20.50;99.90;;;;;;8303362;28;20248;-63
2023/07/18 08:19:59;;;;;;;3.53;1.37;;;20.60;99.90;;;;;;8300412;28;20186;-64
2023/07/18 08:24:00;;;;;;;2.20;1.20;;;20.60;99.90;;;;;;8299759;28;20243;-65
2023/07/18 08:28:01;;;;;;;2.17;1.37;;;20.70;99.90;;;;;;8299736;28;20194;-65
2023/07/18 08:32:03;;;;;;;1.63;1.27;;;21.00;99.90;;;;;;8298021;28;20252;-64
2023/07/18 08:36:04;;;;;;;2.70;1.07;;;21.20;99.90;;;;;;8303031;28;20214;-63
2023/07/18 08:40:06;;;;;;;1.87;1.00;;;21.20;99.90;;;;;;8301488;28;20229;-63
2023/07/18 08:44:12;;;;;;;1.27;0.97;;;21.20;99.90;;;;;;8305019;28;20179;-64
2023/07/18 08:48:13;;;;;;;1.73;1.20;;;21.30;99.90;;;;;;8295118;28;20302;-65
2023/07/18 08:52:14;;;;;;;4.53;1.13;;;21.50;99.90;;;;;;8301631;28;20198;-64
2023/07/18 08:56:18;;;;;;;1.30;1.10;;;21.80;99.90;;;;;;8297353;28;20225;-64
2023/07/18 09:00:20;;;;;;;1.37;1.00;;;22.10;99.90;;;;;;8299533;28;20187;-65
2023/07/18 09:04:25;;;;;;;1.83;1.30;;;22.20;99.90;;;;;;8292542;28;20226;-63
2023/07/18 09:08:26;;;;;;;2.23;1.20;;;22.20;99.90;;;;;;8297614;28;20201;-65
2023/07/18 09:12:27;;;;;;;2.70;1.50;;;22.20;99.90;;;;;;8297104;28;20190;-66
2023/07/18 09:16:29;;;;;;;1.63;1.30;;;22.30;99.90;;;;;;8295189;28;20210;-64
2023/07/18 09:20:30;;;;;;;3.63;1.13;;;22.20;99.90;;;;;;8290958;28;20187;-65
2023/07/18 09:24:32;;;;;;;3.30;0.97;;;22.30;99.90;;;;;;8295307;28;20197;-65
2023/07/18 09:28:34;;;;;;;2.50;1.10;;;22.30;99.90;;;;;;8295587;28;20206;-65
2023/07/18 09:32:36;;;;;;;2.13;1.00;;;22.60;99.90;;;;;;8295185;28;20194;-66
2023/07/18 09:36:37;;;;;;;1.97;1.20;;;22.70;99.90;;;;;;8303370;28;20309;-64
2023/07/18 09:40:40;;;;;;;2.50;1.00;;;22.90;99.90;;;;;;8296990;28;20187;-64
2023/07/18 09:44:48;;;;;;;1.43;0.90;;;23.10;99.90;;;;;;8303931;28;20182;-65
2023/07/18 09:48:52;;;;;;;1.37;0.87;;;22.80;99.90;;;;;;8309488;28;20187;-65
2023/07/18 09:52:56;;;;;;;2.00;1.17;;;23.00;99.90;;;;;;8303715;28;20195;-65
2023/07/18 09:57:05;;;;;;;1.97;1.20;;;23.20;99.90;;;;;;8299342;28;20214;-65
2023/07/18 10:01:14;;;;;;;3.40;1.20;;;23.30;99.90;;;;;;8304486;28;20210;-64
2023/07/18 10:05:16;;;;;;;2.10;1.20;;;23.60;99.90;;;;;;8298716;28;20234;-65
2023/07/18 10:09:17;;;;;;;1.37;0.87;;;23.70;99.90;;;;;;8301689;28;20186;-66
2023/07/18 10:13:19;;;;;;;1.23;0.90;;;23.80;99.90;;;;;;8302286;28;20256;-66
2023/07/18 10:17:47;;;;;;;1.70;1.10;;;24.00;99.90;;;;;;8306227;28;20337;-65
2023/07/18 10:21:51;;;;;;;1.63;1.03;;;24.30;99.90;;;;;;8300099;28;20194;-62
2023/07/18 10:25:55;;;;;;;2.13;1.20;;;24.00;99.90;;;;;;8320358;28;20232;-65
2023/07/18 10:30:07;;;;;;;1.80;1.03;;;24.10;99.90;;;;;;8306741;28;20213;-65
2023/07/18 10:34:10;;;;;;;1.57;1.07;;;24.20;99.90;;;;;;8295915;28;20190;-66
2023/07/18 10:38:13;;;;;;;2.67;1.10;;;24.40;99.90;;;;;;8302450;28;20241;-65
2023/07/18 10:42:20;;;;;;;2.70;1.00;;;24.10;99.90;;;;;;8309400;28;20286;-64
2023/07/18 10:46:24;;;;;;;3.07;1.27;;;23.70;99.90;;;;;;8320318;28;20199;-64
2023/07/18 10:50:25;;;;;;;1.13;0.93;;;24.00;99.90;;;;;;8308943;28;20190;-65
2023/07/18 10:54:26;;;;;;;0.80;0.70;;;24.30;99.90;;;;;;8306292;28;20195;-64
2023/07/18 10:58:27;;;;;;;1.67;1.10;;;24.30;99.90;;;;;;8296311;28;20218;-64
2023/07/18 11:02:48;;;;;;;1.63;0.97;;;24.40;99.90;;;;;;8296226;28;20187;-65
2023/07/18 11:06:56;;;;;;;3.03;1.33;;;24.30;99.90;;;;;;8286772;28;20213;-66
2023/07/18 11:10:59;;;;;;;1.37;0.97;;;24.40;99.90;;;;;;8300146;28;20198;-65
2023/07/18 11:15:02;;;;;;;3.30;0.90;;;24.30;99.90;;;;;;8294444;28;20194;-64
2023/07/18 11:19:06;;;;;;;3.27;1.00;;;24.20;99.90;;;;;;8314309;28;20230;-67
2023/07/18 11:23:25;;;;;;;2.20;0.97;;;24.20;99.90;;;;;;8298338;28;20282;-64
2023/07/18 11:27:27;;;;;;;2.17;1.10;;;24.40;99.90;;;;;;8296676;28;20201;-63
2023/07/18 11:31:30;;;;;;;1.27;0.70;;;24.50;99.90;;;;;;8301288;28;20241;-66
2023/07/18 11:35:31;;;;;;;3.10;1.20;;;24.70;99.90;;;;;;8297277;28;20256;-67
2023/07/18 11:39:32;;;;;;;1.33;0.80;;;25.10;99.90;;;;;;8302894;28;20190;-67
2023/07/18 11:43:34;;;;;;;2.07;1.30;;;25.40;99.90;;;;;;8298372;28;20287;-65
2023/07/18 11:47:43;;;;;;;2.20;1.00;;;25.60;99.90;;;;;;8294247;28;20192;-64
2023/07/18 11:51:44;;;;;;;2.40;0.90;;;25.40;99.90;;;;;;8303165;28;20194;-66
2023/07/18 11:55:45;;;;;;;5.37;1.20;;;25.90;99.90;;;;;;8307821;28;20214;-66
2023/07/18 11:59:46;;;;;;;2.15;0.90;;;26.40;99.90;;;;;;8291759;28;20221;-68
2023/07/18 12:03:47;;;;;;;1.17;0.77;;;26.50;99.90;;;;;;8299095;28;20302;-66
2023/07/18 12:07:48;;;;;;;1.70;0.97;;;25.90;99.90;;;;;;8297638;28;20207;-65
2023/07/18 12:11:49;;;;;;;2.47;1.10;;;25.20;99.90;;;;;;8295036;28;20190;-65
2023/07/18 12:15:50;;;;;;;2.07;1.20;;;25.00;99.90;;;;;;8295995;28;20214;-65
2023/07/18 12:19:51;;;;;;;1.53;0.93;;;24.80;99.90;;;;;;8293681;28;20305;-66
2023/07/18 12:23:52;;;;;;;2.60;1.23;;;24.70;99.90;;;;;;8290641;28;20281;-64
2023/07/18 12:27:52;;;;;;;1.40;0.93;;;24.80;99.90;;;;;;8295998;28;20194;-66
2023/07/18 12:31:53;;;;;;;3.20;1.23;;;25.00;99.90;;;;;;8291186;28;20187;-66
2023/07/18 12:35:55;;;;;;;2.60;0.90;;;25.40;99.90;;;;;;8299796;28;20272;-65
2023/07/18 12:39:56;;;;;;;2.13;0.93;;;25.80;99.90;;;;;;8297507;28;20187;-66
2023/07/18 12:43:59;;;;;;;2.60;1.10;;;26.20;99.90;;;;;;8293022;28;20197;-65
2023/07/18 12:48:01;;;;;;;1.58;0.98;;;26.60;99.90;;;;;;8294300;28;20195;-66
2023/07/18 12:52:03;;;;;;;1.00;0.90;;;27.00;99.90;;;;;;8277574;28;20194;-66
2023/07/18 12:56:04;;;;;;;6.07;1.70;;;27.30;99.90;;;;;;8291659;28;20219;-65
2023/07/18 13:00:06;;;;;;;3.63;1.20;;;27.30;99.90;;;;;;8291578;28;20182;-67
2023/07/18 13:04:07;;;;;;;4.00;1.55;;;27.20;99.90;;;;;;8290475;28;20218;-65
2023/07/18 13:08:08;;;;;;;4.35;1.15;;;27.60;99.90;;;;;;8293368;28;20281;-66
2023/07/18 13:12:09;;;;;;;1.80;0.90;;;27.60;99.90;;;;;;8292275;28;20245;-65
2023/07/18 13:16:10;;;;;;;1.38;1.00;;;27.20;99.90;;;;;;8290162;28;20214;-66
2023/07/18 13:20:11;;;;;;;3.92;1.15;;;27.30;99.90;;;;;;8291460;28;20194;-66
2023/07/18 13:24:12;;;;;;;2.55;1.40;;;26.90;99.90;;;;;;8300133;28;20187;-66
2023/07/18 13:28:13;;;;;;;2.67;1.20;;;26.70;99.90;;;;;;8291910;28;20198;-64
2023/07/18 13:32:14;;;;;;;2.92;1.10;;;26.70;99.90;;;;;;8278958;28;20190;-64
2023/07/18 13:36:15;;;;;;;3.25;1.25;;;26.60;99.90;;;;;;8294953;28;20202;-67
2023/07/18 13:40:16;;;;;;;2.42;1.10;;;26.60;99.90;;;;;;8304543;28;20187;-65
2023/07/18 13:44:17;;;;;;;2.67;1.20;;;26.70;99.90;;;;;;8292257;28;20178;-66
2023/07/18 13:48:17;;;;;;;2.20;1.20;;;27.10;99.90;;;;;;8296382;28;20241;-67
2023/07/18 13:52:20;;;;;;;2.17;1.15;;;27.30;99.90;;;;;;8290961;28;20193;-67
2023/07/18 13:56:21;;;;;;;2.08;1.20;;;27.70;99.90;;;;;;8300017;28;20207;-65
2023/07/18 14:00:22;;;;;;;1.70;1.23;;;27.80;99.90;;;;;;8291280;28;20205;-67
2023/07/18 14:04:24;;;;;;;1.63;1.10;;;27.50;99.90;;;;;;8301873;28;20229;-67
2023/07/18 14:08:27;;;;;;;1.90;1.00;;;27.30;99.90;;;;;;8296283;28;20190;-64
2023/07/18 14:12:28;;;;;;;2.17;1.10;;;27.30;99.90;;;;;;8316663;28;20186;-65
2023/07/18 14:16:29;;;;;;;2.72;1.33;;;27.70;99.90;;;;;;8280304;28;20347;-66
2023/07/18 14:20:30;;;;;;;2.50;1.23;;;27.40;99.90;;;;;;8293132;28;20189;-65
2023/07/18 14:24:31;;;;;;;3.35;1.27;;;27.40;99.90;;;;;;8302292;28;20247;-65
2023/07/18 14:28:32;;;;;;;3.47;1.33;;;27.40;99.90;;;;;;8296191;28;20244;-65
2023/07/18 14:32:33;;;;;;;2.80;1.20;;;27.20;99.90;;;;;;8294884;28;20197;-65
2023/07/18 14:36:35;;;;;;;2.10;1.50;;;26.90;99.90;;;;;;8295897;28;20210;-67
2023/07/18 14:40:36;;;;;;;5.72;1.10;;;26.60;99.90;;;;;;8297972;28;20206;-65
2023/07/18 14:44:40;;;;;;;2.00;1.20;;;26.60;99.90;;;;;;8291646;28;20183;-66
2023/07/18 14:48:40;;;;;;;2.35;1.00;;;26.80;99.90;;;;;;8293679;28;20334;-65
2023/07/18 14:52:42;;;;;;;3.45;1.30;;;27.00;99.90;;;;;;8293343;28;20188;-65
2023/07/18 14:56:45;;;;;;;4.13;1.20;;;26.90;99.90;;;;;;8293688;28;20218;-69
2023/07/18 15:00:50;;;;;;;1.98;1.42;;;26.90;99.90;;;;;;8295467;28;20187;-67
2023/07/18 15:04:51;;;;;;;1.83;0.90;;;27.00;99.90;;;;;;8297048;28;20229;-67
2023/07/18 15:08:56;;;;;;;1.77;1.10;;;27.00;99.90;;;;;;8299824;28;20190;-67
2023/07/18 15:12:57;;;;;;;1.67;0.98;;;27.00;99.90;;;;;;8301112;28;20193;-64
2023/07/18 15:16:58;;;;;;;3.17;1.30;;;26.60;99.90;;;;;;8295715;28;20207;-65
2023/07/18 15:21:00;;;;;;;3.30;1.27;;;26.20;99.90;;;;;;8287054;28;20187;-65
2023/07/18 15:25:01;;;;;;;3.40;1.33;;;25.90;99.90;;;;;;8285597;28;20269;-64
2023/07/18 15:29:03;;;;;;;2.33;1.10;;;25.60;99.90;;;;;;8297798;28;20197;-63
2023/07/18 15:33:04;;;;;;;3.73;1.40;;;25.40;99.90;;;;;;8307101;28;20198;-66
2023/07/18 15:37:05;;;;;;;2.93;1.20;;;25.50;99.90;;;;;;8292222;28;20317;-66
2023/07/18 15:41:05;;;;;;;3.00;1.10;;;25.70;99.90;;;;;;8284979;28;20218;-65
2023/07/18 15:45:07;;;;;;;2.00;1.33;;;26.00;99.90;;;;;;8292107;28;20210;-65
2023/07/18 15:49:08;;;;;;;2.17;1.40;;;26.10;99.90;;;;;;8294118;28;20190;-67
2023/07/18 15:53:09;;;;;;;2.60;1.30;;;26.20;99.90;;;;;;8294958;28;20193;-67
2023/07/18 15:57:10;;;;;;;1.83;1.00;;;26.10;99.90;;;;;;8289895;28;20245;-67
2023/07/18 16:01:11;;;;;;;1.67;0.90;;;26.10;99.90;;;;;;8289958;28;20179;-65
2023/07/18 16:05:11;;;;;;;2.03;1.10;;;26.00;99.90;;;;;;8287768;28;20214;-68
2023/07/18 16:09:12;;;;;;;1.70;1.10;;;26.10;99.90;;;;;;8289538;28;20186;-67
2023/07/18 16:13:13;;;;;;;1.90;1.02;;;26.20;99.90;;;;;;8291323;28;20285;-66
2023/07/18 16:17:15;;;;;;;1.87;1.20;;;26.10;99.90;;;;;;8295487;28;20206;-64
2023/07/18 16:21:18;;;;;;;3.40;1.60;;;26.00;99.90;;;;;;8289651;28;20187;-65
2023/07/18 16:25:19;;;;;;;3.27;1.97;;;26.00;99.90;;;;;;8286821;28;20221;-66
2023/07/18 16:29:20;;;;;;;2.00;1.30;;;26.10;99.90;;;;;;8293250;28;20269;-65
2023/07/18 16:33:21;;;;;;;3.70;1.50;;;26.10;99.90;;;;;;8284162;28;20276;-66
2023/07/18 16:37:25;;;;;;;2.97;1.40;;;26.00;99.90;;;;;;8292166;28;20225;-66
2023/07/18 16:41:27;;;;;;;4.53;2.10;;;25.90;99.90;;;;;;8290740;28;20183;-66
2023/07/18 16:45:28;;;;;;;4.30;1.33;;;25.90;99.90;;;;;;8285504;28;20187;-65
2023/07/18 16:49:30;;;;;;;3.03;1.57;;;25.80;99.90;;;;;;8297454;28;20183;-66
2023/07/18 16:53:33;;;;;;;2.97;1.60;;;25.80;99.90;;;;;;8291210;28;20276;-64
2023/07/18 16:57:34;;;;;;;2.47;1.47;;;25.90;99.90;;;;;;8291316;28;20214;-66
2023/07/18 17:01:35;;;;;;;2.40;1.27;;;25.80;99.90;;;;;;8295821;28;20223;-66
2023/07/18 17:05:37;;;;;;;4.50;2.30;;;25.30;99.90;;;;;;8297999;28;20254;-65
2023/07/18 17:09:38;;;;;;;3.10;1.40;;;25.20;99.90;;;;;;8299925;28;20182;-66
2023/07/18 17:13:38;;;;;;;3.37;1.37;;;25.10;99.90;;;;;;8294751;28;20197;-65
2023/07/18 17:17:40;;;;;;;2.43;1.30;;;25.00;99.90;;;;;;8295500;28;20206;-66
2023/07/18 17:21:40;;;;;;;2.00;1.40;;;24.80;99.90;;;;;;8294234;28;20189;-66
2023/07/18 17:25:41;;;;;;;1.70;1.20;;;24.70;99.90;;;;;;8297086;28;20186;-66
2023/07/18 17:29:43;;;;;;;5.47;1.57;;;25.00;99.90;;;;;;8296485;28;20187;-65
2023/07/18 17:33:43;;;;;;;3.20;1.60;;;25.60;99.90;;;;;;8297925;28;20195;-65
2023/07/18 17:37:44;;;;;;;3.03;1.60;;;26.20;99.90;;;;;;8292045;28;20291;-66
2023/07/18 17:41:46;;;;;;;2.30;1.55;;;26.40;99.90;;;;;;8291553;28;20193;-66
2023/07/18 17:45:47;;;;;;;2.60;1.50;;;26.80;99.90;;;;;;8291259;28;20276;-65
2023/07/18 17:49:48;;;;;;;4.60;1.58;;;26.90;99.90;;;;;;8296749;28;20198;-64
2023/07/18 17:53:52;;;;;;;1.50;1.20;;;27.30;99.90;;;;;;8295185;28;20213;-65
2023/07/18 17:57:53;;;;;;;1.70;1.20;;;27.20;99.90;;;;;;8295522;28;20328;-65
2023/07/18 18:01:54;;;;;;;3.70;1.25;;;27.10;99.90;;;;;;8294628;28;20195;-65
2023/07/18 18:05:55;;;;;;;2.90;1.40;;;27.00;99.90;;;;;;8304968;28;20237;-65
2023/07/18 18:09:56;;;;;;;5.45;1.48;;;27.00;99.90;;;;;;8302426;28;20198;-64
2023/07/18 18:13:58;;;;;;;4.00;1.33;;;26.90;99.90;;;;;;8293380;28;20190;-65
2023/07/18 18:17:59;;;;;;;2.33;1.33;;;26.90;99.90;;;;;;8304474;28;20214;-65
2023/07/18 18:22:01;;;;;;;1.20;1.02;;;26.80;99.90;;;;;;8306030;28;20194;-64
2023/07/18 18:26:03;;;;;;;3.17;1.50;;;26.60;99.90;;;;;;8307280;28;20194;-65
2023/07/18 18:30:05;;;;;;;2.05;1.10;;;26.40;99.90;;;;;;8323735;28;20241;-65
2023/07/18 18:34:06;;;;;;;3.53;1.53;;;26.20;99.90;;;;;;8310131;28;20190;-65
2023/07/18 18:38:07;;;;;;;1.97;1.50;;;26.00;99.90;;;;;;8305825;28;20271;-66
2023/07/18 18:42:08;;;;;;;2.03;1.60;;;25.60;99.90;;;;;;8298550;28;20189;-64
2023/07/18 18:46:11;;;;;;;3.63;1.80;;;25.20;99.90;;;;;;8292922;28;20214;-65
2023/07/18 18:50:19;;;;;;;2.57;1.70;;;24.70;99.90;;;;;;8306806;28;20187;-65
2023/07/18 18:54:23;;;;;;;3.30;1.57;;;24.20;99.90;;;;;;8267750;28;20211;-66
2023/07/18 18:58:24;;;;;;;3.20;1.50;;;23.30;99.90;;;;;;8278087;28;20219;-64
2023/07/18 19:02:25;;;;;;;6.17;2.10;;;22.50;99.90;;;;;;8255914;28;20184;-65
2023/07/18 19:06:26;;;;;;;3.10;1.83;;;21.90;99.90;;;;;;8274654;28;20234;-65
2023/07/18 19:10:27;;;;;;;2.13;1.60;;;21.40;99.90;;;;;;8273989;28;20191;-65
2023/07/18 19:14:28;;;;;;;2.97;1.70;;;20.90;99.90;;;;;;8264737;28;20365;-65
2023/07/18 19:18:29;;;;;;;2.10;1.40;;;20.50;99.90;;;;;;8258555;28;20211;-63
2023/07/18 19:22:30;;;;;;;3.20;1.70;;;20.10;99.90;;;;;;8267999;28;20263;-66
2023/07/18 19:26:34;;;;;;;1.83;1.23;;;19.70;99.90;;;;;;8261572;28;20184;-66
2023/07/18 19:30:38;;;;;;;2.37;1.40;;;19.40;99.90;;;;;;8266157;28;20196;-65
2023/07/18 19:34:43;;;;;;;2.33;1.60;;;19.20;99.90;;;;;;8268221;28;20187;-64
2023/07/18 19:38:44;;;;;;;2.13;1.53;;;18.90;99.90;;;;;;8266948;28;20345;-66
2023/07/18 19:42:45;;;;;;;2.50;1.53;;;18.70;99.90;;;;;;8266759;28;20289;-65
2023/07/18 19:46:46;;;;;;;2.40;1.50;;;18.40;99.90;;;;;;8267822;28;20191;-65
2023/07/18 19:50:47;;;;;;;2.30;1.50;;;18.20;99.90;;;;;;8286341;28;20198;-65
2023/07/18 19:54:48;;;;;;;2.57;1.57;;;18.00;99.90;;;;;;8266881;28;20187;-65
2023/07/18 19:58:49;;;;;;;2.43;1.50;;;17.80;99.90;;;;;;8272450;28;20282;-65
2023/07/18 20:02:53;;;;;;;2.50;1.40;;;17.60;99.90;;;;;;8263688;28;20256;-66
2023/07/18 20:06:55;;;;;;;3.87;1.60;;;17.40;99.90;;;;;;8266205;28;20225;-66
2023/07/18 20:10:56;;;;;;;2.63;1.70;;;17.20;99.90;;;;;;8257461;28;20199;-65
2023/07/18 20:14:57;;;;;;;1.87;1.40;;;17.00;99.90;;;;;;8265868;28;20271;-66
2023/07/18 20:18:58;;;;;;;3.63;1.83;;;16.80;99.90;;;;;;8268576;28;20215;-64
2023/07/18 20:22:59;;;;;;;7.40;2.37;;;16.70;99.90;;;;;;8262531;28;20222;-64
2023/07/18 20:27:00;;;;;;;3.30;1.97;;;16.70;99.90;;;;;;8264896;28;20191;-64
2023/07/18 20:31:02;;;;;;;3.40;1.60;;;16.60;99.90;;;;;;8265204;28;20195;-64
2023/07/18 20:35:03;;;;;;;2.93;1.50;;;16.50;99.90;;;;;;8272751;28;20187;-64
2023/07/18 20:39:04;;;;;;;3.30;1.80;;;16.30;99.90;;;;;;8268085;28;20292;-65
2023/07/18 20:43:05;;;;;;;3.27;1.70;;;16.30;99.90;;;;;;8261014;28;20195;-65
2023/07/18 20:47:08;;;;;;;2.73;1.70;;;16.20;99.90;;;;;;8273764;28;20195;-65
2023/07/18 20:51:09;;;;;;;2.63;1.53;;;16.10;99.90;;;;;;8266515;28;20223;-65
2023/07/18 20:55:10;;;;;;;3.60;1.97;;;16.00;99.90;;;;;;8264535;28;20195;-64
2023/07/18 20:59:11;;;;;;;2.77;1.67;;;15.90;99.90;;;;;;8263678;28;20219;-65